Používaním stránok prevádzkovaných PROFIPILOT, s.r.o. súhlasíte s používaním cookies, ktoré nám pomáhajú zabezpečiť lepšie služby.OK

Briefing

MAPA | METAR | TAF | METEO SITUÁCIA
MAPA | METAR | TAF | METEO SITUÁCIA

Predpoveď na dnes

Polojasno až oblačno. Ojedinele na severe a východe slabý dážď alebo prehánky. Na vrcholoch Tatier zrážky snehové. Najvyššia denná teplota 18 až 23, na severe okolo 16 st. Teplota na horách vo výške 1500 m okolo 8 st. Slabý premenlivý vietor. Predpokladané množstvo zrážok: do 2 mm.

SHMÚ, OMPaV, MA 24.9.2016 12:00 LSEČ

MAPA | METAR | TAF | METEO SITUÁCIA

TAF - Letisková predpoveď

24.09.2016 - 17:00 UTC

TAF AMD LZPP 242010Z 2420/2503 CNL=
 

24.09.2016 - 20:00 UTC

TAF LZSL 242000Z 2421/2506 VRB01KT CAVOK
     BECMG 2423/2501 2000 BR SCT002
     TEMPO 2501/2506 0100 FG OVC001=
 TAF LZZI 242000Z 2421/2506 07003KT CAVOK
     BECMG 2422/2424 VRB02KT 3000 BR SCT003
     TEMPO 2501/2506 0300 FG BKN001=
 

24.09.2016 - 20:00 UTC

TAF LZSL 242000Z 2421/2506 VRB01KT CAVOK
     BECMG 2423/2501 2000 BR SCT002
     TEMPO 2501/2506 0100 FG OVC001=
 TAF LZZI 242000Z 2421/2506 07003KT CAVOK
     BECMG 2422/2424 VRB02KT 3000 BR SCT003
     TEMPO 2501/2506 0300 FG BKN001=
 

24.09.2016 - 17:00 UTC

TAF LZSL 241700Z 2418/2503 VRB02KT CAVOK
     BECMG 2501/2503 4000 MIFG SCT001=
 TAF LZPP 241700Z 2418/2503 04003KT CAVOK=
 TAF LZZI 241700Z 2418/2503 VRB02KT 9999 SCT040
     BECMG 2501/2503 3000 MIFG SCT003=
 

24.09.2016 - 17:00 UTC

TAF LZIB 241700Z 2418/2518 VRB02KT CAVOK
     TEMPO 2502/2507 4000 MIFG NSC
     BECMG 2508/2510 10005KT 9999 SCT043=
 TAF LZKZ 241700Z 2418/2518 36005KT 9999 SCT045 SCT080
     PROB40 TEMPO 2418/2422 -SHRA SCT040TCU BKN050
     BECMG 2510/2512 03008KT=
 TAF LZTT 241700Z 2418/2518 27005KT 9999 FEW040 BKN050
     BECMG 2419/2421 12003KT
     PROB40 TEMPO 2502/2507 2000 BCFG SCT005
     TEMPO 2511/2517 07007KT 7000 SHRA SCT035TCU BKN040=
 

24.09.2016 - 17:00 UTC

TAF LZSL 241700Z 2418/2503 VRB02KT CAVOK
     BECMG 2501/2503 4000 MIFG SCT001=
 TAF LZPP 241700Z 2418/2503 04003KT CAVOK=
 TAF LZZI 241700Z 2418/2503 VRB02KT 9999 SCT040
     BECMG 2501/2503 3000 MIFG SCT003=
 

24.09.2016 - 14:00 UTC

TAF LZSL 241400Z 2415/2424 VRB02KT 9999 SCT040=
 TAF LZPP 241400Z 2415/2424 02003KT CAVOK=
 TAF LZZI 241400Z 2415/2424 VRB02KT 9999 SCT040=
 

24.09.2016 - 14:00 UTC

TAF LZSL 241400Z 2415/2424 VRB02KT 9999 SCT040=
 TAF LZPP 241400Z 2415/2424 02003KT CAVOK=
 TAF LZZI 241400Z 2415/2424 VRB02KT 9999 SCT040=
 

24.09.2016 - 11:00 UTC

TAF LZSL 241100Z 2412/2421 VRB02KT 9999 SCT040=
 TAF LZPP 241100Z 2412/2421 02003KT CAVOK=
 TAF LZZI 241100Z 2412/2421 VRB02KT 9999 SCT040=
 

24.09.2016 - 11:00 UTC

TAF LZIB 241100Z 2412/2512 33004KT CAVOK
     BECMG 2416/2418 VRB02KT
     TEMPO 2502/2507 4000 MIFG NSC=
 TAF LZKZ 241100Z 2412/2512 35003KT CAVOK
     TEMPO 2412/2420 23004KT 9999 FEW045 SCT090
     PROB40 TEMPO 2412/2417 01008KT SHRA SCT040CB BKN050=
 TAF LZTT 241100Z 2412/2512 27005KT 9999 FEW050
     TEMPO 2412/2418 13006KT -SHRA SCT040CB BKN050
     BECMG 2418/2420 CAVOK
     PROB40 TEMPO 2502/2508 2000 BCFG SCT005=
 

24.09.2016 - 11:00 UTC

TAF LZSL 241100Z 2412/2421 VRB02KT 9999 SCT040=
 TAF LZPP 241100Z 2412/2421 02003KT CAVOK=
 TAF LZZI 241100Z 2412/2421 VRB02KT 9999 SCT040=
 

24.09.2016 - 08:00 UTC

TAF LZSL 240800Z 2409/2418 VRB02KT 9999 SCT040=
 TAF LZPP 240800Z 2409/2418 02004KT CAVOK=
 TAF LZZI 240800Z 2409/2418 VRB02KT 9999 BR SCT040=
 

24.09.2016 - 08:00 UTC

TAF LZSL 240800Z 2409/2418 VRB02KT 9999 SCT040=
 TAF LZPP 240800Z 2409/2418 02004KT CAVOK=
 TAF LZZI 240800Z 2409/2418 VRB02KT 9999 BR SCT040=
 

24.09.2016 - 05:00 UTC

TAF LZSL 240500Z 2406/2415 VRB02KT 2000 BR BKN002
     TEMPO 2406/2407 0200 FG OVC001
     BECMG 2407/2409 9999 NSW FEW050 SCT090=
 TAF LZPP 240500Z 2406/2415 02004KT CAVOK=
 TAF LZZI 240500Z 2406/2415 VRB02KT 3000 BR SCT003
     TEMPO 2406/2407 1200 BR OVC002
     BECMG 2407/2409 9999 NSW SCT050 SCT080=
 

24.09.2016 - 05:00 UTC

TAF LZIB 240500Z 2406/2506 33004KT CAVOK
     BECMG 2416/2418 VRB02KT
     TEMPO 2500/2506 9999 MIFG NSC=
 TAF LZKZ 240500Z 2406/2506 35003KT CAVOK
     TEMPO 2410/2420 23004KT 9999 FEW045 SCT090=
 TAF LZTT 240500Z 2406/2506 27005KT 9999 FEW050
     TEMPO 2409/2418 13006KT -SHRA SCT050 SCT090
     BECMG 2418/2420 CAVOK
     PROB30 TEMPO 2502/2506 2000 BCFG FEW004=
 

24.09.2016 - 05:00 UTC

TAF LZSL 240500Z 2406/2415 VRB02KT 2000 BR BKN002
     TEMPO 2406/2407 0200 FG OVC001
     BECMG 2407/2409 9999 NSW FEW050 SCT090=
 TAF LZPP 240500Z 2406/2415 02004KT CAVOK=
 TAF LZZI 240500Z 2406/2415 VRB02KT 3000 BR SCT003
     TEMPO 2406/2407 1200 BR OVC002
     BECMG 2407/2409 9999 NSW SCT050 SCT080=
 

24.09.2016 - 02:00 UTC

TAF LZSL 240200Z 2403/2412 VRB02KT 0500 FG BKN001
     TEMPO 2403/2406 0100 FG VV001
     BECMG 2406/2408 9999 NSW FEW050 SCT090=
 TAF LZZI 240200Z 2403/2412 VRB02KT 2000 BR SCT003
     TEMPO 2403/2406 0400 FG OVC001
     BECMG 2406/2408 9999 NSW SCT050 SCT080=
 

24.09.2016 - 02:00 UTC

TAF LZSL 240200Z 2403/2412 VRB02KT 0500 FG BKN001
     TEMPO 2403/2406 0100 FG VV001
     BECMG 2406/2408 9999 NSW FEW050 SCT090=
 TAF LZZI 240200Z 2403/2412 VRB02KT 2000 BR SCT003
     TEMPO 2403/2406 0400 FG OVC001
     BECMG 2406/2408 9999 NSW SCT050 SCT080=
 
MAPA | METAR | TAF | METEO SITUÁCIA

METAR - Letisková meteo správa

Letisková meteorologická správa METAR

Meteorologické informácie z ďalších profesionálnych meteorologických staníc SHMÚ zobrazené v tvare zodpovedajúcom pravidlám kódovania správ METAR sú uvedené v položke „METSYN Informácie o správe METAR

24.09.2016 - 20:30 UTC

METAR LZIB 242030Z 04001KT CAVOK 12/09 Q1025=
 METAR LZKZ 242030Z 01005KT 9999 -RA NSC 13/11 Q1025=
 METAR LZPP 242030Z AUTO VRB02KT 9999 NCD 10/09 Q1025=
 METAR LZSL 242030Z VRB01KT CAVOK 09/08 Q1025=
 METAR LZTT 242030Z VRB01KT 9999 -RA SCT025 OVC060 10/09 Q1026=
 METAR LZZI 242030Z 12002KT 9999 OVC040 13/11 Q1025=
 

24.09.2016 - 20:00 UTC

METAR LZIB 242000Z 34001KT CAVOK 12/08 Q1025=
 METAR LZKZ 242000Z 35005KT 9999 FEW040 BKN070 13/10 Q1025=
 METAR LZPP 242000Z 35003KT CAVOK 10/09 Q1025=
 METAR LZSL 242000Z 00000KT CAVOK 09/08 Q1025=
 METAR LZTT 242000Z 31003KT 230V030 9999 SCT025 OVC060 10/09 Q1026=
 METAR LZZI 242000Z 12002KT 9999 SCT044 OVC052 13/11 Q1025=
 

24.09.2016 - 20:00 UTC

METAR LZMC 242000Z 00000KT CAVOK 12/10 Q1025=
 METAR LZPW 242000Z 16002KT 9999 FEW012 OVC031 12/11
 Q1025=
 
načítavam...